createdAt,value
2019-03-03T00:01:47.802Z,0.00
2019-03-03T00:04:18.075Z,0.00
2019-03-03T00:06:48.506Z,0.10
2019-03-03T00:09:18.894Z,0.00
2019-03-03T00:11:49.141Z,0.10
2019-03-03T00:14:19.503Z,0.10
2019-03-03T00:16:50.066Z,0.10
2019-03-03T00:19:20.368Z,0.10
2019-03-03T00:21:52.238Z,0.10
2019-03-03T00:24:24.136Z,0.10
2019-03-03T00:26:54.427Z,0.10
2019-03-03T00:29:25.160Z,0.00
2019-03-03T00:31:55.415Z,0.10
2019-03-03T00:34:26.202Z,0.10
2019-03-03T00:37:28.677Z,0.20
2019-03-03T00:40:21.037Z,0.20
2019-03-03T00:42:57.147Z,0.20
2019-03-03T00:45:52.516Z,0.10
2019-03-03T00:48:31.690Z,0.10
2019-03-03T00:51:08.618Z,0.10
2019-03-03T00:54:01.555Z,0.10
2019-03-03T00:56:47.191Z,0.10
2019-03-03T00:59:34.348Z,0.10
2019-03-03T01:02:23.608Z,0.00
2019-03-03T01:05:11.822Z,0.00
2019-03-03T01:08:04.002Z,0.00
2019-03-03T01:11:00.057Z,0.00
2019-03-03T01:13:44.726Z,0.00
2019-03-03T01:16:36.935Z,-0.10
2019-03-03T01:19:13.351Z,-0.10
2019-03-03T01:22:03.658Z,-0.10
2019-03-03T01:25:01.950Z,0.00
2019-03-03T01:27:32.239Z,0.00
2019-03-03T01:30:02.511Z,0.00
2019-03-03T01:32:32.969Z,0.00
2019-03-03T01:35:03.238Z,0.00
2019-03-03T01:37:34.029Z,0.00
2019-03-03T01:40:04.831Z,0.10
2019-03-03T01:42:35.390Z,0.10
2019-03-03T01:45:07.371Z,0.10
2019-03-03T01:47:37.677Z,0.00
2019-03-03T01:50:09.367Z,-0.10
2019-03-03T01:52:39.628Z,0.00
2019-03-03T01:55:10.158Z,0.10
2019-03-03T01:57:41.452Z,0.20
2019-03-03T02:00:21.225Z,0.30
2019-03-03T02:02:51.773Z,0.50
2019-03-03T02:05:22.347Z,0.50
2019-03-03T02:07:52.631Z,0.70
2019-03-03T02:10:24.079Z,0.80
2019-03-03T02:12:54.889Z,0.80
2019-03-03T02:15:25.141Z,0.70
2019-03-03T02:17:55.505Z,0.70
2019-03-03T02:20:26.235Z,0.80
2019-03-03T02:22:56.571Z,0.90
2019-03-03T02:25:26.993Z,0.90
2019-03-03T02:27:57.360Z,0.90
2019-03-03T02:30:27.734Z,1.00
2019-03-03T02:32:58.369Z,1.00
2019-03-03T02:35:28.755Z,1.00
2019-03-03T02:37:59.314Z,1.10
2019-03-03T02:40:29.569Z,1.10
2019-03-03T02:42:59.776Z,1.20
2019-03-03T02:45:30.057Z,1.20
2019-03-03T02:48:00.388Z,1.10
2019-03-03T02:50:31.054Z,1.20
2019-03-03T02:53:01.364Z,1.20
2019-03-03T02:55:31.788Z,1.30
2019-03-03T02:58:02.055Z,1.30
2019-03-03T03:00:34.686Z,1.30
2019-03-03T03:03:07.027Z,1.40
2019-03-03T03:06:08.581Z,1.50
2019-03-03T03:09:00.587Z,1.40
2019-03-03T03:11:47.265Z,1.40
2019-03-03T03:14:40.030Z,1.40
2019-03-03T03:17:47.511Z,1.40
2019-03-03T03:20:35.359Z,1.50
2019-03-03T03:23:20.435Z,1.60
2019-03-03T03:26:07.573Z,1.50
2019-03-03T03:29:02.718Z,1.60
2019-03-03T03:31:41.541Z,1.60
2019-03-03T03:34:16.474Z,1.70
2019-03-03T03:37:00.235Z,1.70
2019-03-03T03:39:41.709Z,1.70
2019-03-03T03:42:27.369Z,1.70
2019-03-03T03:45:16.306Z,1.70
2019-03-03T03:48:04.033Z,1.70
2019-03-03T03:51:05.380Z,1.80
2019-03-03T03:53:45.876Z,1.80
2019-03-03T03:56:50.449Z,1.80
2019-03-03T03:59:32.091Z,1.90
2019-03-03T04:02:20.794Z,1.80
2019-03-03T04:05:07.648Z,1.80
2019-03-03T04:07:46.817Z,1.80
2019-03-03T04:10:34.675Z,1.80
2019-03-03T04:13:14.286Z,1.90
2019-03-03T04:16:02.025Z,2.00
2019-03-03T04:18:50.001Z,1.80
2019-03-03T04:21:48.235Z,1.90
2019-03-03T04:24:36.152Z,1.90
2019-03-03T04:27:31.276Z,2.00
2019-03-03T04:30:26.562Z,2.00
2019-03-03T04:33:27.634Z,2.00
2019-03-03T04:36:18.548Z,2.10
2019-03-03T04:38:57.475Z,2.10
2019-03-03T04:41:44.248Z,2.20
2019-03-03T04:44:33.543Z,2.20
2019-03-03T04:47:21.176Z,2.20
2019-03-03T04:50:09.035Z,2.30
2019-03-03T04:52:54.762Z,2.30
2019-03-03T04:55:49.562Z,2.40
2019-03-03T04:58:54.119Z,2.40
2019-03-03T05:01:46.383Z,2.40
2019-03-03T05:04:26.949Z,2.50
2019-03-03T05:07:11.323Z,2.40
2019-03-03T05:09:56.573Z,2.50
2019-03-03T05:12:48.640Z,2.40
2019-03-03T05:15:39.390Z,2.50
2019-03-03T05:18:17.507Z,2.40
2019-03-03T05:20:49.788Z,2.60
2019-03-03T05:23:20.071Z,2.60
2019-03-03T05:25:50.357Z,2.60
2019-03-03T05:28:20.650Z,2.50
2019-03-03T05:30:50.904Z,2.50
2019-03-03T05:33:21.239Z,2.60
2019-03-03T05:35:51.497Z,2.60
2019-03-03T05:38:22.362Z,2.60
2019-03-03T05:40:52.621Z,2.60
2019-03-03T05:43:23.127Z,2.60
2019-03-03T05:45:53.541Z,2.60
2019-03-03T05:48:24.175Z,2.60
2019-03-03T05:50:54.415Z,2.70
2019-03-03T05:53:24.913Z,2.70
2019-03-03T05:55:55.197Z,2.70
2019-03-03T05:58:25.555Z,2.80
2019-03-03T06:00:56.546Z,2.90
2019-03-03T06:03:26.947Z,3.00
2019-03-03T06:05:57.201Z,3.10
2019-03-03T06:08:27.811Z,3.00
2019-03-03T06:10:58.343Z,3.10
2019-03-03T06:13:28.580Z,3.10
2019-03-03T06:15:58.888Z,3.20
2019-03-03T06:18:29.582Z,3.20
2019-03-03T06:20:59.823Z,3.20
2019-03-03T06:23:30.108Z,3.30
2019-03-03T06:26:00.718Z,3.40
2019-03-03T06:28:30.963Z,3.30
2019-03-03T06:31:02.186Z,3.30
2019-03-03T06:33:32.492Z,3.30
2019-03-03T06:36:02.884Z,3.40
2019-03-03T06:38:33.307Z,3.40
2019-03-03T06:41:03.612Z,3.20
2019-03-03T06:43:33.923Z,3.30
2019-03-03T06:46:04.208Z,3.30
2019-03-03T06:48:34.424Z,3.40
2019-03-03T06:51:04.690Z,3.50
2019-03-03T06:53:35.139Z,3.50
2019-03-03T06:56:05.426Z,3.60
2019-03-03T06:58:35.816Z,3.50
2019-03-03T07:01:06.120Z,3.50
2019-03-03T07:03:36.509Z,3.60
2019-03-03T07:06:06.830Z,3.80
2019-03-03T07:08:37.132Z,3.90
2019-03-03T07:11:07.368Z,4.00
2019-03-03T07:13:38.040Z,4.00
2019-03-03T07:16:08.306Z,3.90
2019-03-03T07:18:38.926Z,3.70
2019-03-03T07:21:09.189Z,3.60
2019-03-03T07:23:39.976Z,3.60
2019-03-03T07:26:10.238Z,3.70
2019-03-03T07:28:40.743Z,3.70
2019-03-03T07:31:11.018Z,3.70
2019-03-03T07:33:44.668Z,3.70
2019-03-03T07:36:14.926Z,3.70
2019-03-03T07:38:45.232Z,3.80
2019-03-03T07:41:15.491Z,3.90
2019-03-03T07:43:45.785Z,3.80
2019-03-03T07:46:16.018Z,3.90
2019-03-03T07:48:46.322Z,3.90
2019-03-03T07:51:16.590Z,4.00
2019-03-03T07:53:46.922Z,4.00
2019-03-03T07:56:17.226Z,4.30
2019-03-03T07:58:47.558Z,4.30
2019-03-03T08:01:17.854Z,4.60
2019-03-03T08:03:48.162Z,4.70
2019-03-03T08:06:18.418Z,4.90
2019-03-03T08:08:48.982Z,5.00
2019-03-03T08:11:19.171Z,5.10
2019-03-03T08:13:49.414Z,5.20
2019-03-03T08:16:19.726Z,5.40
2019-03-03T08:18:49.897Z,5.50
2019-03-03T08:21:20.774Z,5.80
2019-03-03T08:23:52.002Z,6.20
2019-03-03T08:26:22.298Z,6.60
2019-03-03T08:28:52.574Z,6.60
2019-03-03T08:31:22.845Z,6.90
2019-03-03T08:33:53.135Z,7.10
2019-03-03T08:36:23.390Z,7.30
2019-03-03T08:38:53.825Z,7.70
2019-03-03T08:41:24.146Z,7.90
2019-03-03T08:44:13.387Z,7.80
2019-03-03T08:47:05.494Z,8.20
2019-03-03T08:50:00.910Z,8.30
2019-03-03T08:52:51.810Z,8.60
2019-03-03T08:55:31.637Z,8.40
2019-03-03T08:58:19.395Z,8.30
2019-03-03T09:01:02.096Z,8.20
2019-03-03T09:03:45.463Z,8.50
2019-03-03T09:06:29.251Z,8.30
2019-03-03T09:09:09.838Z,8.50
2019-03-03T09:11:48.301Z,8.60
2019-03-03T09:14:37.518Z,8.70
2019-03-03T09:17:19.328Z,8.80
2019-03-03T09:20:08.519Z,8.70
2019-03-03T09:22:56.521Z,8.90
2019-03-03T09:25:45.764Z,8.80
2019-03-03T09:28:30.598Z,8.70
2019-03-03T09:31:19.283Z,8.80
2019-03-03T09:34:17.927Z,8.70
2019-03-03T09:37:07.261Z,8.90
2019-03-03T09:40:09.491Z,9.30
2019-03-03T09:42:56.040Z,9.40
2019-03-03T09:45:38.013Z,9.50
2019-03-03T09:48:29.989Z,9.60
2019-03-03T09:51:25.550Z,9.60
2019-03-03T09:54:11.394Z,9.50
2019-03-03T09:56:56.087Z,9.60
2019-03-03T09:59:48.183Z,9.50
2019-03-03T10:02:46.617Z,9.70
2019-03-03T10:05:32.555Z,9.80
2019-03-03T10:08:32.217Z,10.10
2019-03-03T10:11:11.386Z,10.30
2019-03-03T10:14:03.742Z,10.50
2019-03-03T10:16:55.827Z,10.50
2019-03-03T10:19:54.125Z,10.40
2019-03-03T10:22:46.382Z,10.50
2019-03-03T10:25:27.221Z,10.70
2019-03-03T10:28:19.191Z,10.80
2019-03-03T10:30:58.990Z,10.30
2019-03-03T10:33:58.651Z,9.90
2019-03-03T10:36:36.917Z,9.70
2019-03-03T10:39:27.599Z,9.40
2019-03-03T10:42:27.815Z,9.40
2019-03-03T10:45:17.050Z,9.40
2019-03-03T10:48:00.118Z,9.40
2019-03-03T10:50:45.401Z,9.30
2019-03-03T10:53:30.501Z,9.30
2019-03-03T10:56:22.792Z,9.20
2019-03-03T10:59:03.793Z,9.20
2019-03-03T11:02:02.214Z,9.10
2019-03-03T11:04:51.648Z,9.00
2019-03-03T11:07:40.917Z,9.00
2019-03-03T11:10:19.110Z,8.90
2019-03-03T11:12:56.814Z,9.10
2019-03-03T11:15:48.854Z,9.10
2019-03-03T11:18:43.398Z,9.00
2019-03-03T11:21:31.400Z,9.00
2019-03-03T11:24:15.590Z,8.90
2019-03-03T11:26:59.199Z,8.90
2019-03-03T11:29:38.085Z,9.00
2019-03-03T11:32:39.858Z,9.20
2019-03-03T11:35:19.110Z,9.10
2019-03-03T11:38:06.108Z,9.10
2019-03-03T11:40:56.972Z,8.90
2019-03-03T11:43:32.664Z,8.70
2019-03-03T11:46:34.034Z,8.50
2019-03-03T11:49:23.520Z,8.50
2019-03-03T11:52:12.876Z,8.60
2019-03-03T11:54:49.165Z,8.40
2019-03-03T11:57:34.631Z,8.30
2019-03-03T12:00:25.068Z,8.30
2019-03-03T12:03:05.858Z,8.20
2019-03-03T12:05:55.350Z,8.40
2019-03-03T12:08:44.891Z,8.40
2019-03-03T12:11:28.136Z,8.40
2019-03-03T12:14:21.306Z,8.50
2019-03-03T12:17:10.574Z,8.50
2019-03-03T12:20:00.394Z,8.60
2019-03-03T12:22:48.743Z,8.50
2019-03-03T12:25:32.122Z,8.40
2019-03-03T12:28:24.512Z,8.40
2019-03-03T12:31:11.344Z,8.40
2019-03-03T12:33:50.659Z,8.30
2019-03-03T12:36:40.202Z,8.30
2019-03-03T12:39:32.932Z,8.40
2019-03-03T12:42:34.377Z,8.50
2019-03-03T12:45:18.259Z,8.70
2019-03-03T12:48:22.688Z,8.90
2019-03-03T12:51:06.987Z,9.30
2019-03-03T12:53:50.056Z,9.40
2019-03-03T12:56:39.329Z,9.10
2019-03-03T12:59:33.484Z,9.10
2019-03-03T13:02:23.169Z,9.00
2019-03-03T13:05:18.503Z,9.20
2019-03-03T13:08:03.986Z,9.20
2019-03-03T13:11:05.998Z,9.00
2019-03-03T13:13:56.941Z,9.00
2019-03-03T13:16:37.048Z,9.00
2019-03-03T13:19:18.195Z,8.80
2019-03-03T13:22:07.703Z,8.90
2019-03-03T13:24:47.705Z,8.90
2019-03-03T13:27:52.114Z,9.00
2019-03-03T13:30:48.655Z,9.10
2019-03-03T13:33:38.975Z,9.00
2019-03-03T13:36:26.144Z,9.00
2019-03-03T13:39:08.503Z,9.00
2019-03-03T13:42:01.113Z,9.10
2019-03-03T13:44:31.630Z,9.20
2019-03-03T13:47:01.905Z,9.20
2019-03-03T13:49:32.199Z,9.30
2019-03-03T13:52:03.205Z,9.40
2019-03-03T13:54:33.459Z,9.40
2019-03-03T13:57:03.722Z,9.50
2019-03-03T13:59:36.261Z,9.40
2019-03-03T14:02:06.526Z,9.50
2019-03-03T14:04:38.554Z,9.60
2019-03-03T14:07:08.821Z,9.60
2019-03-03T14:09:39.577Z,9.50
2019-03-03T14:12:09.885Z,9.50
2019-03-03T14:14:41.623Z,9.50
2019-03-03T14:17:11.887Z,9.30
2019-03-03T14:19:42.511Z,9.30
2019-03-03T14:22:12.803Z,9.20
2019-03-03T14:24:43.147Z,9.30
2019-03-03T14:27:13.419Z,9.30
2019-03-03T14:29:44.146Z,9.50
2019-03-03T14:32:14.416Z,9.50
2019-03-03T14:34:45.275Z,9.50
2019-03-03T14:37:15.551Z,9.60
2019-03-03T14:39:45.948Z,9.60
2019-03-03T14:42:16.160Z,9.40
2019-03-03T14:44:46.551Z,9.40
2019-03-03T14:47:17.552Z,9.50
2019-03-03T14:49:47.824Z,9.60
2019-03-03T14:52:18.284Z,9.60
2019-03-03T14:54:48.645Z,9.50
2019-03-03T14:57:19.018Z,9.40
2019-03-03T14:59:49.870Z,9.50
2019-03-03T15:02:20.297Z,9.50
2019-03-03T15:04:50.715Z,9.50
2019-03-03T15:07:25.155Z,9.50
2019-03-03T15:09:55.520Z,9.60
2019-03-03T15:12:26.588Z,9.70
2019-03-03T15:14:57.075Z,9.70
2019-03-03T15:17:29.799Z,9.70
2019-03-03T15:20:00.319Z,9.60
2019-03-03T15:22:30.611Z,9.60
2019-03-03T15:25:01.018Z,9.70
2019-03-03T15:27:31.364Z,9.70
2019-03-03T15:30:01.775Z,9.70
2019-03-03T15:32:32.574Z,9.70
2019-03-03T15:35:02.767Z,9.70
2019-03-03T15:37:33.131Z,9.70
2019-03-03T15:40:04.192Z,9.70
2019-03-03T15:42:34.702Z,9.80
2019-03-03T15:45:05.518Z,9.80
2019-03-03T15:47:36.394Z,9.80
2019-03-03T15:50:07.458Z,9.90
2019-03-03T15:52:37.940Z,9.90
2019-03-03T15:55:10.687Z,9.80
2019-03-03T15:57:42.016Z,9.90
2019-03-03T16:00:16.244Z,9.90
2019-03-03T16:02:46.527Z,9.90
2019-03-03T16:05:17.237Z,9.90
2019-03-03T16:07:47.564Z,9.90
2019-03-03T16:10:18.162Z,9.90
2019-03-03T16:12:48.580Z,9.90
2019-03-03T16:15:19.040Z,10.00
2019-03-03T16:17:49.460Z,10.10
2019-03-03T16:20:20.059Z,10.00
2019-03-03T16:22:50.695Z,10.00
2019-03-03T16:25:21.446Z,10.00
2019-03-03T16:27:52.244Z,10.00
2019-03-03T16:30:22.680Z,10.00
2019-03-03T16:32:52.870Z,10.10
2019-03-03T16:35:23.342Z,10.10
2019-03-03T16:37:53.666Z,10.10
2019-03-03T16:40:24.136Z,10.10
2019-03-03T16:42:55.551Z,10.10
2019-03-03T16:45:26.235Z,10.10
2019-03-03T16:47:56.499Z,10.10
2019-03-03T16:50:27.171Z,10.10
2019-03-03T16:52:57.580Z,10.20
2019-03-03T16:55:28.354Z,10.30
2019-03-03T16:57:58.715Z,10.20
2019-03-03T17:00:29.419Z,10.30
2019-03-03T17:02:59.729Z,10.30
2019-03-03T17:05:30.500Z,10.30
2019-03-03T17:08:00.844Z,10.40
2019-03-03T17:10:31.667Z,10.40
2019-03-03T17:13:01.946Z,10.40
2019-03-03T17:15:32.353Z,10.30
2019-03-03T17:18:03.426Z,10.40
2019-03-03T17:20:33.885Z,10.40
2019-03-03T17:23:04.231Z,10.40
2019-03-03T17:25:34.889Z,10.50
2019-03-03T17:28:05.238Z,10.40
2019-03-03T17:30:37.959Z,10.50
2019-03-03T17:33:08.783Z,10.50
2019-03-03T17:35:39.360Z,10.40
2019-03-03T17:38:09.819Z,10.50
2019-03-03T17:40:40.198Z,10.50
2019-03-03T17:43:11.052Z,10.50
2019-03-03T17:45:41.411Z,10.50
2019-03-03T17:48:12.929Z,10.50
2019-03-03T17:50:43.377Z,10.50
2019-03-03T17:53:13.914Z,10.50
2019-03-03T17:55:44.209Z,10.50
2019-03-03T17:58:14.975Z,10.50
2019-03-03T18:00:47.537Z,10.50
2019-03-03T18:03:18.002Z,10.50
2019-03-03T18:05:48.492Z,10.50
2019-03-03T18:08:18.789Z,10.50
2019-03-03T18:10:49.191Z,10.40
2019-03-03T18:13:19.467Z,10.40
2019-03-03T18:15:50.211Z,10.30
2019-03-03T18:18:21.165Z,10.30
2019-03-03T18:20:51.975Z,10.20
2019-03-03T18:23:22.447Z,10.20
2019-03-03T18:25:53.531Z,10.20
2019-03-03T18:28:23.871Z,10.00
2019-03-03T18:30:54.119Z,10.00
2019-03-03T18:33:24.544Z,9.90
2019-03-03T18:35:54.923Z,9.90
2019-03-03T18:38:25.200Z,9.80
2019-03-03T18:40:56.204Z,9.70
2019-03-03T18:43:26.493Z,9.70
2019-03-03T18:45:56.828Z,9.60
2019-03-03T18:48:28.026Z,9.60
2019-03-03T18:50:58.724Z,9.60
2019-03-03T18:53:29.420Z,9.50
2019-03-03T18:56:00.096Z,9.50
2019-03-03T18:58:30.746Z,9.50
2019-03-03T19:01:01.192Z,9.50
2019-03-03T19:03:31.955Z,9.60
2019-03-03T19:06:02.334Z,9.50
2019-03-03T19:08:32.963Z,9.50
2019-03-03T19:11:03.252Z,9.50
2019-03-03T19:13:35.629Z,9.40
2019-03-03T19:16:06.221Z,9.40
2019-03-03T19:18:37.160Z,9.40
2019-03-03T19:21:07.493Z,9.40
2019-03-03T19:23:39.112Z,9.30
2019-03-03T19:26:09.639Z,9.20
2019-03-03T19:28:41.704Z,9.20
2019-03-03T19:31:13.271Z,9.20
2019-03-03T19:33:50.017Z,9.20
2019-03-03T19:36:23.094Z,9.20
2019-03-03T19:38:53.452Z,9.10
2019-03-03T19:41:23.763Z,9.20
2019-03-03T19:43:54.329Z,9.10
2019-03-03T19:46:24.896Z,9.20
2019-03-03T19:48:56.375Z,9.20
2019-03-03T19:51:26.779Z,9.10
2019-03-03T19:53:57.430Z,9.10
2019-03-03T19:56:28.013Z,9.10
2019-03-03T19:58:58.501Z,9.20
2019-03-03T20:01:28.794Z,9.10
2019-03-03T20:03:59.276Z,9.10
2019-03-03T20:06:29.610Z,9.10
2019-03-03T20:08:59.901Z,9.10
2019-03-03T20:11:30.220Z,9.10
2019-03-03T20:14:00.538Z,9.10
2019-03-03T20:16:31.231Z,9.10
2019-03-03T20:19:02.128Z,9.20
2019-03-03T20:21:32.557Z,9.10
2019-03-03T20:24:02.830Z,9.10
2019-03-03T20:26:33.405Z,9.20
2019-03-03T20:29:03.908Z,9.10
2019-03-03T20:31:34.280Z,9.10
2019-03-03T20:34:06.012Z,9.10
2019-03-03T20:36:36.503Z,9.20
2019-03-03T20:39:07.918Z,9.10
2019-03-03T20:41:39.867Z,9.10
2019-03-03T20:44:10.157Z,9.10
2019-03-03T20:46:40.461Z,9.10
2019-03-03T20:49:10.793Z,9.10
2019-03-03T20:51:41.439Z,9.10
2019-03-03T20:54:12.735Z,9.10
2019-03-03T20:56:43.444Z,9.20
2019-03-03T20:59:13.966Z,9.10
2019-03-03T21:01:44.867Z,9.10
2019-03-03T21:04:15.237Z,9.10
2019-03-03T21:06:45.660Z,9.10
2019-03-03T21:09:15.973Z,9.10
2019-03-03T21:11:46.360Z,9.10
2019-03-03T21:14:16.860Z,9.10
2019-03-03T21:16:47.275Z,9.20
2019-03-03T21:19:17.550Z,9.20
2019-03-03T21:21:49.660Z,9.20
2019-03-03T21:24:21.747Z,9.20
2019-03-03T21:26:52.349Z,9.20
2019-03-03T21:29:23.068Z,9.20
2019-03-03T21:31:53.369Z,9.20
2019-03-03T21:34:23.895Z,9.30
2019-03-03T21:36:54.972Z,9.20
2019-03-03T21:39:25.374Z,9.20
2019-03-03T21:41:55.784Z,9.20
2019-03-03T21:44:26.121Z,9.20
2019-03-03T21:46:56.506Z,9.30
2019-03-03T21:49:26.972Z,9.20
2019-03-03T21:51:57.191Z,9.20
2019-03-03T21:54:27.747Z,9.20
2019-03-03T21:56:58.031Z,9.20
2019-03-03T21:59:28.807Z,9.20
2019-03-03T22:01:59.538Z,9.20
2019-03-03T22:04:29.827Z,9.20
2019-03-03T22:07:00.080Z,9.20
2019-03-03T22:09:30.411Z,9.10
2019-03-03T22:12:00.693Z,9.10
2019-03-03T22:14:31.034Z,9.10
2019-03-03T22:17:01.285Z,9.10
2019-03-03T22:19:31.611Z,9.20
2019-03-03T22:22:01.903Z,9.20
2019-03-03T22:24:32.227Z,9.20
2019-03-03T22:27:02.501Z,9.20
2019-03-03T22:29:32.781Z,9.20
2019-03-03T22:32:03.076Z,9.20
2019-03-03T22:34:33.363Z,9.10
2019-03-03T22:37:03.675Z,9.10
2019-03-03T22:39:33.994Z,9.10
2019-03-03T22:42:04.555Z,9.10
2019-03-03T22:44:34.825Z,9.10
2019-03-03T22:47:05.139Z,9.10
2019-03-03T22:49:35.453Z,9.10
2019-03-03T22:52:05.723Z,9.10
2019-03-03T22:54:36.025Z,9.10
2019-03-03T22:57:06.321Z,9.20
2019-03-03T22:59:36.623Z,9.20
2019-03-03T23:02:07.317Z,9.20
2019-03-03T23:05:02.854Z,9.10
2019-03-03T23:08:06.708Z,9.20
2019-03-03T23:11:06.386Z,9.10
2019-03-03T23:13:53.683Z,9.20
2019-03-03T23:17:05.678Z,9.20
2019-03-03T23:20:16.934Z,9.10
2019-03-03T23:23:31.100Z,9.00
2019-03-03T23:26:01.435Z,9.10
2019-03-03T23:28:32.006Z,9.10
2019-03-03T23:31:02.454Z,9.10
2019-03-03T23:33:32.706Z,9.10
2019-03-03T23:36:03.085Z,9.00
2019-03-03T23:38:33.357Z,9.00
2019-03-03T23:41:03.650Z,9.00
2019-03-03T23:43:33.895Z,9.10
2019-03-03T23:46:04.198Z,9.00
2019-03-03T23:48:34.726Z,9.00
2019-03-03T23:51:05.206Z,9.10
2019-03-03T23:53:35.416Z,9.10
2019-03-03T23:56:05.682Z,9.00
2019-03-03T23:58:36.148Z,9.00
